sensor_id;sensor_type;location;lat;lon;timestamp;pressure;altitude;pressure_sealevel;temperature;humidity
12213;BME280;6169;44.158;22.788;2022-11-21T00:01:16;99923.09;;;12.69;87.86
12213;BME280;6169;44.158;22.788;2022-11-21T00:06:19;99911.69;;;12.72;87.95
12213;BME280;6169;44.158;22.788;2022-11-21T00:11:23;99894.22;;;12.63;87.96
12213;BME280;6169;44.158;22.788;2022-11-21T00:16:26;99882.16;;;12.48;88.48
12213;BME280;6169;44.158;22.788;2022-11-21T00:21:28;99883.91;;;12.22;90.29
12213;BME280;6169;44.158;22.788;2022-11-21T00:26:30;99903.41;;;12.14;91.32
12213;BME280;6169;44.158;22.788;2022-11-21T00:31:34;99921.25;;;12.00;92.35
12213;BME280;6169;44.158;22.788;2022-11-21T00:36:36;99913.47;;;11.81;92.53
12213;BME280;6169;44.158;22.788;2022-11-21T00:41:38;99898.41;;;12.01;91.48
12213;BME280;6169;44.158;22.788;2022-11-21T00:46:43;99901.16;;;11.74;93.10
12213;BME280;6169;44.158;22.788;2022-11-21T00:51:45;99887.16;;;11.60;94.07
12213;BME280;6169;44.158;22.788;2022-11-21T00:56:47;99875.50;;;11.91;91.56
12213;BME280;6169;44.158;22.788;2022-11-21T01:01:51;99851.78;;;11.87;91.78
12213;BME280;6169;44.158;22.788;2022-11-21T01:06:53;99844.78;;;11.91;91.58
12213;BME280;6169;44.158;22.788;2022-11-21T01:11:55;99852.56;;;11.82;91.97
12213;BME280;6169;44.158;22.788;2022-11-21T01:16:59;99847.00;;;12.36;89.05
12213;BME280;6169;44.158;22.788;2022-11-21T01:22:01;99847.72;;;12.27;88.96
12213;BME280;6169;44.158;22.788;2022-11-21T01:27:03;99819.09;;;12.67;86.90
12213;BME280;6169;44.158;22.788;2022-11-21T01:32:06;99794.06;;;12.65;86.63
12213;BME280;6169;44.158;22.788;2022-11-21T01:37:09;99756.09;;;12.38;88.33
12213;BME280;6169;44.158;22.788;2022-11-21T01:42:12;99765.16;;;12.01;89.49
12213;BME280;6169;44.158;22.788;2022-11-21T01:47:16;99757.50;;;12.45;87.51
12213;BME280;6169;44.158;22.788;2022-11-21T01:52:22;99751.25;;;12.50;87.32
12213;BME280;6169;44.158;22.788;2022-11-21T01:57:29;99755.44;;;12.73;85.58
12213;BME280;6169;44.158;22.788;2022-11-21T02:02:36;99761.09;;;12.61;85.82
12213;BME280;6169;44.158;22.788;2022-11-21T02:07:42;99753.28;;;12.80;85.02
12213;BME280;6169;44.158;22.788;2022-11-21T02:12:48;99759.00;;;12.78;84.51
12213;BME280;6169;44.158;22.788;2022-11-21T02:17:52;99757.44;;;12.35;86.58
12213;BME280;6169;44.158;22.788;2022-11-21T02:23:00;99770.78;;;12.36;87.63
12213;BME280;6169;44.158;22.788;2022-11-21T02:28:08;99782.31;;;12.06;89.49
12213;BME280;6169;44.158;22.788;2022-11-21T02:33:13;99797.09;;;11.51;90.33
12213;BME280;6169;44.158;22.788;2022-11-21T02:38:17;99797.31;;;11.72;89.13
12213;BME280;6169;44.158;22.788;2022-11-21T02:43:24;99800.34;;;11.21;89.87
12213;BME280;6169;44.158;22.788;2022-11-21T02:48:29;99787.88;;;11.25;89.20
12213;BME280;6169;44.158;22.788;2022-11-21T02:53:31;99782.84;;;11.39;88.94
12213;BME280;6169;44.158;22.788;2022-11-21T02:58:34;99771.50;;;10.88;89.18
12213;BME280;6169;44.158;22.788;2022-11-21T03:03:37;99757.66;;;11.16;88.38
12213;BME280;6169;44.158;22.788;2022-11-21T03:08:39;99755.34;;;11.03;88.72
12213;BME280;6169;44.158;22.788;2022-11-21T03:13:42;99774.56;;;11.23;88.74
12213;BME280;6169;44.158;22.788;2022-11-21T03:18:44;99776.66;;;11.16;87.84
12213;BME280;6169;44.158;22.788;2022-11-21T03:23:47;99781.38;;;10.99;88.35
12213;BME280;6169;44.158;22.788;2022-11-21T03:28:50;99780.66;;;11.09;89.24
12213;BME280;6169;44.158;22.788;2022-11-21T03:33:52;99781.47;;;10.60;89.63
12213;BME280;6169;44.158;22.788;2022-11-21T03:38:55;99780.50;;;10.49;89.01
12213;BME280;6169;44.158;22.788;2022-11-21T03:44:01;99785.81;;;10.39;87.95
12213;BME280;6169;44.158;22.788;2022-11-21T03:49:04;99774.97;;;10.00;88.14
12213;BME280;6169;44.158;22.788;2022-11-21T03:54:07;99772.16;;;9.95;87.62
12213;BME280;6169;44.158;22.788;2022-11-21T03:59:10;99759.06;;;9.70;87.14
12213;BME280;6169;44.158;22.788;2022-11-21T04:04:12;99774.66;;;9.80;86.30
12213;BME280;6169;44.158;22.788;2022-11-21T04:09:14;99776.63;;;9.67;85.24
12213;BME280;6169;44.158;22.788;2022-11-21T04:14:18;99781.31;;;9.89;83.92
12213;BME280;6169;44.158;22.788;2022-11-21T04:19:20;99786.66;;;10.23;81.05
12213;BME280;6169;44.158;22.788;2022-11-21T04:24:22;99786.72;;;9.89;81.57
12213;BME280;6169;44.158;22.788;2022-11-21T04:29:26;99788.44;;;9.78;81.78
12213;BME280;6169;44.158;22.788;2022-11-21T04:34:28;99780.81;;;9.75;81.07
12213;BME280;6169;44.158;22.788;2022-11-21T04:39:30;99781.31;;;9.72;81.00
12213;BME280;6169;44.158;22.788;2022-11-21T04:44:34;99788.63;;;9.55;81.22
12213;BME280;6169;44.158;22.788;2022-11-21T04:49:36;99791.47;;;9.82;79.56
12213;BME280;6169;44.158;22.788;2022-11-21T04:54:38;99801.91;;;9.90;78.48
12213;BME280;6169;44.158;22.788;2022-11-21T04:59:42;99807.78;;;9.36;81.14
12213;BME280;6169;44.158;22.788;2022-11-21T05:04:44;99811.19;;;9.60;80.53
12213;BME280;6169;44.158;22.788;2022-11-21T05:09:46;99803.97;;;9.66;79.09
12213;BME280;6169;44.158;22.788;2022-11-21T05:14:49;99802.00;;;9.95;78.09
12213;BME280;6169;44.158;22.788;2022-11-21T05:19:52;99806.81;;;9.42;78.92
12213;BME280;6169;44.158;22.788;2022-11-21T05:24:54;99800.00;;;9.57;78.20
12213;BME280;6169;44.158;22.788;2022-11-21T05:29:57;99811.25;;;9.49;78.41
12213;BME280;6169;44.158;22.788;2022-11-21T05:34:59;99805.44;;;9.74;77.13
12213;BME280;6169;44.158;22.788;2022-11-21T05:40:02;99800.28;;;9.55;77.79
12213;BME280;6169;44.158;22.788;2022-11-21T05:45:07;99785.41;;;9.75;77.05
12213;BME280;6169;44.158;22.788;2022-11-21T05:50:10;99807.72;;;9.99;78.37
12213;BME280;6169;44.158;22.788;2022-11-21T05:55:12;99811.84;;;9.67;77.23
12213;BME280;6169;44.158;22.788;2022-11-21T06:00:17;99828.28;;;9.61;78.40
12213;BME280;6169;44.158;22.788;2022-11-21T06:05:19;99850.09;;;9.71;76.40
12213;BME280;6169;44.158;22.788;2022-11-21T06:10:21;99865.38;;;9.60;81.85
12213;BME280;6169;44.158;22.788;2022-11-21T06:15:25;99863.56;;;9.09;82.95
12213;BME280;6169;44.158;22.788;2022-11-21T06:20:27;99878.47;;;9.35;80.61
12213;BME280;6169;44.158;22.788;2022-11-21T06:25:29;99903.47;;;9.71;77.94
12213;BME280;6169;44.158;22.788;2022-11-21T06:30:33;99915.03;;;9.49;74.78
12213;BME280;6169;44.158;22.788;2022-11-21T06:35:36;99929.22;;;9.56;74.82
12213;BME280;6169;44.158;22.788;2022-11-21T06:40:39;99926.78;;;9.55;73.93
12213;BME280;6169;44.158;22.788;2022-11-21T06:45:43;99944.34;;;9.52;72.48
12213;BME280;6169;44.158;22.788;2022-11-21T06:50:45;99948.41;;;9.38;73.73
12213;BME280;6169;44.158;22.788;2022-11-21T06:55:47;99896.78;;;9.04;72.74
12213;BME280;6169;44.158;22.788;2022-11-21T07:00:51;99969.22;;;9.37;73.90
12213;BME280;6169;44.158;22.788;2022-11-21T07:05:53;99961.66;;;8.40;74.14
12213;BME280;6169;44.158;22.788;2022-11-21T07:11:00;99969.41;;;8.84;74.66
12213;BME280;6169;44.158;22.788;2022-11-21T07:16:06;99968.84;;;8.82;73.09
12213;BME280;6169;44.158;22.788;2022-11-21T07:21:09;99978.81;;;8.57;74.29
12213;BME280;6169;44.158;22.788;2022-11-21T07:26:11;99981.59;;;9.33;72.69
12213;BME280;6169;44.158;22.788;2022-11-21T07:31:15;99993.94;;;9.17;74.09
12213;BME280;6169;44.158;22.788;2022-11-21T07:36:17;100011.06;;;8.71;73.65
12213;BME280;6169;44.158;22.788;2022-11-21T07:41:19;100012.63;;;9.54;71.36
12213;BME280;6169;44.158;22.788;2022-11-21T07:46:22;100016.34;;;9.13;72.05
12213;BME280;6169;44.158;22.788;2022-11-21T07:51:25;100013.03;;;9.46;70.66
12213;BME280;6169;44.158;22.788;2022-11-21T07:56:27;100008.34;;;9.18;71.64
12213;BME280;6169;44.158;22.788;2022-11-21T08:01:30;100014.13;;;9.10;71.89
12213;BME280;6169;44.158;22.788;2022-11-21T08:06:33;100022.22;;;8.74;72.93
12213;BME280;6169;44.158;22.788;2022-11-21T08:11:36;100033.91;;;8.87;72.28
12213;BME280;6169;44.158;22.788;2022-11-21T08:16:39;100034.84;;;9.04;72.13
12213;BME280;6169;44.158;22.788;2022-11-21T08:21:41;100029.66;;;8.67;72.39
12213;BME280;6169;44.158;22.788;2022-11-21T08:26:44;100040.72;;;9.01;73.99
12213;BME280;6169;44.158;22.788;2022-11-21T08:31:48;100028.25;;;8.76;73.77
12213;BME280;6169;44.158;22.788;2022-11-21T08:36:50;100040.13;;;8.99;73.23
12213;BME280;6169;44.158;22.788;2022-11-21T08:41:52;100057.56;;;9.79;71.04
12213;BME280;6169;44.158;22.788;2022-11-21T08:47:05;100059.28;;;9.97;70.42
12213;BME280;6169;44.158;22.788;2022-11-21T08:52:07;100051.06;;;10.37;70.38
12213;BME280;6169;44.158;22.788;2022-11-21T08:57:09;100050.22;;;9.91;67.47
12213;BME280;6169;44.158;22.788;2022-11-21T09:02:13;100046.69;;;10.19;67.11
12213;BME280;6169;44.158;22.788;2022-11-21T09:07:15;100044.75;;;10.03;71.74
12213;BME280;6169;44.158;22.788;2022-11-21T09:12:17;100063.09;;;10.12;63.93
12213;BME280;6169;44.158;22.788;2022-11-21T09:17:21;100064.13;;;9.95;65.23
12213;BME280;6169;44.158;22.788;2022-11-21T09:22:40;100073.16;;;9.60;65.66
12213;BME280;6169;44.158;22.788;2022-11-21T09:27:42;100087.78;;;9.47;63.96
12213;BME280;6169;44.158;22.788;2022-11-21T09:32:46;100098.41;;;9.37;64.18
12213;BME280;6169;44.158;22.788;2022-11-21T09:37:48;100085.34;;;9.34;64.90
12213;BME280;6169;44.158;22.788;2022-11-21T09:43:21;100078.19;;;9.68;62.02
12213;BME280;6169;44.158;22.788;2022-11-21T09:48:31;100080.00;;;10.03;63.58
12213;BME280;6169;44.158;22.788;2022-11-21T09:53:38;100087.19;;;9.57;63.41
12213;BME280;6169;44.158;22.788;2022-11-21T09:58:46;100113.69;;;9.43;62.89
12213;BME280;6169;44.158;22.788;2022-11-21T10:03:51;100085.31;;;9.45;63.63
12213;BME280;6169;44.158;22.788;2022-11-21T10:08:58;100105.22;;;9.51;63.11
12213;BME280;6169;44.158;22.788;2022-11-21T10:14:12;100096.38;;;9.20;63.04
12213;BME280;6169;44.158;22.788;2022-11-21T10:19:30;100093.44;;;9.45;63.78
12213;BME280;6169;44.158;22.788;2022-11-21T10:24:43;100090.88;;;9.39;63.03
12213;BME280;6169;44.158;22.788;2022-11-21T10:29:53;100090.50;;;9.47;63.93
12213;BME280;6169;44.158;22.788;2022-11-21T10:35:10;100083.75;;;9.61;63.07
12213;BME280;6169;44.158;22.788;2022-11-21T10:40:21;100086.09;;;9.70;61.53
12213;BME280;6169;44.158;22.788;2022-11-21T10:45:25;100083.03;;;10.35;59.66
12213;BME280;6169;44.158;22.788;2022-11-21T10:50:34;100075.56;;;10.42;60.75
12213;BME280;6169;44.158;22.788;2022-11-21T10:55:59;100074.91;;;10.06;60.99
12213;BME280;6169;44.158;22.788;2022-11-21T11:01:02;100089.72;;;9.87;60.77
12213;BME280;6169;44.158;22.788;2022-11-21T11:06:06;100082.38;;;9.47;62.18
12213;BME280;6169;44.158;22.788;2022-11-21T11:11:14;100086.03;;;10.22;61.04
12213;BME280;6169;44.158;22.788;2022-11-21T11:16:17;100073.66;;;9.97;61.28
12213;BME280;6169;44.158;22.788;2022-11-21T11:21:23;100067.09;;;9.41;60.49
12213;BME280;6169;44.158;22.788;2022-11-21T11:26:27;100063.88;;;9.56;61.05
12213;BME280;6169;44.158;22.788;2022-11-21T11:31:39;100077.59;;;9.78;60.85
12213;BME280;6169;44.158;22.788;2022-11-21T11:36:54;100074.41;;;10.09;60.03
12213;BME280;6169;44.158;22.788;2022-11-21T11:42:19;100098.78;;;10.21;57.73
12213;BME280;6169;44.158;22.788;2022-11-21T11:47:47;99926.38;;;9.34;58.92
12213;BME280;6169;44.158;22.788;2022-11-21T11:53:01;100081.09;;;10.19;59.81
12213;BME280;6169;44.158;22.788;2022-11-21T11:58:09;100079.25;;;10.07;60.82
12213;BME280;6169;44.158;22.788;2022-11-21T12:03:18;100074.53;;;10.60;59.18
12213;BME280;6169;44.158;22.788;2022-11-21T12:08:27;100082.00;;;10.24;59.04
12213;BME280;6169;44.158;22.788;2022-11-21T12:13:35;100064.19;;;10.57;58.50
12213;BME280;6169;44.158;22.788;2022-11-21T12:18:45;100076.47;;;10.31;58.18
12213;BME280;6169;44.158;22.788;2022-11-21T12:23:51;100074.50;;;10.43;58.87
12213;BME280;6169;44.158;22.788;2022-11-21T12:34:28;100078.19;;;10.37;59.48
12213;BME280;6169;44.158;22.788;2022-11-21T12:39:55;100035.31;;;10.05;60.40
12213;BME280;6169;44.158;22.788;2022-11-21T12:45:09;100052.78;;;10.43;59.96
12213;BME280;6169;44.158;22.788;2022-11-21T12:50:23;100050.03;;;10.55;58.65
12213;BME280;6169;44.158;22.788;2022-11-21T12:55:49;100066.34;;;10.43;59.27
12213;BME280;6169;44.158;22.788;2022-11-21T13:01:09;100087.97;;;10.38;59.81
12213;BME280;6169;44.158;22.788;2022-11-21T13:06:19;100095.97;;;9.76;60.16
12213;BME280;6169;44.158;22.788;2022-11-21T13:11:37;100087.78;;;9.23;61.24
12213;BME280;6169;44.158;22.788;2022-11-21T13:17:11;100101.09;;;9.13;60.67
12213;BME280;6169;44.158;22.788;2022-11-21T13:22:46;100110.88;;;10.02;60.25
12213;BME280;6169;44.158;22.788;2022-11-21T13:27:51;100114.28;;;9.57;61.05
12213;BME280;6169;44.158;22.788;2022-11-21T13:32:54;100108.50;;;9.53;60.42
12213;BME280;6169;44.158;22.788;2022-11-21T13:38:00;100104.41;;;9.04;61.96
12213;BME280;6169;44.158;22.788;2022-11-21T13:43:23;100120.97;;;9.07;60.99
12213;BME280;6169;44.158;22.788;2022-11-21T13:48:50;100133.84;;;9.35;61.26
12213;BME280;6169;44.158;22.788;2022-11-21T13:59:43;100159.66;;;9.50;61.14
12213;BME280;6169;44.158;22.788;2022-11-21T14:05:12;100174.09;;;9.32;61.87
12213;BME280;6169;44.158;22.788;2022-11-21T14:10:29;100179.53;;;9.32;62.83
12213;BME280;6169;44.158;22.788;2022-11-21T14:15:41;100177.88;;;9.42;62.61
12213;BME280;6169;44.158;22.788;2022-11-21T14:20:50;100192.97;;;9.62;61.69
12213;BME280;6169;44.158;22.788;2022-11-21T14:25:55;100207.53;;;9.26;62.40
12213;BME280;6169;44.158;22.788;2022-11-21T14:31:02;100198.84;;;9.59;61.49
12213;BME280;6169;44.158;22.788;2022-11-21T14:36:08;100196.84;;;9.31;62.12
12213;BME280;6169;44.158;22.788;2022-11-21T14:41:32;100202.56;;;9.22;62.99
12213;BME280;6169;44.158;22.788;2022-11-21T14:46:38;100196.56;;;9.20;62.57
12213;BME280;6169;44.158;22.788;2022-11-21T14:51:41;100203.50;;;9.05;63.30
12213;BME280;6169;44.158;22.788;2022-11-21T14:56:47;100186.28;;;8.99;62.66
12213;BME280;6169;44.158;22.788;2022-11-21T15:02:02;100232.19;;;9.48;63.06
12213;BME280;6169;44.158;22.788;2022-11-21T15:07:16;100229.13;;;9.02;62.76
12213;BME280;6169;44.158;22.788;2022-11-21T15:12:23;100244.03;;;8.81;64.60
12213;BME280;6169;44.158;22.788;2022-11-21T15:17:29;100237.91;;;8.86;64.88
12213;BME280;6169;44.158;22.788;2022-11-21T15:22:34;100227.72;;;8.69;63.30
12213;BME280;6169;44.158;22.788;2022-11-21T15:27:38;100232.78;;;8.96;62.67
12213;BME280;6169;44.158;22.788;2022-11-21T15:33:04;100238.56;;;9.11;62.13
12213;BME280;6169;44.158;22.788;2022-11-21T15:38:23;100251.63;;;8.72;62.72
12213;BME280;6169;44.158;22.788;2022-11-21T15:43:40;100274.28;;;8.41;64.31
12213;BME280;6169;44.158;22.788;2022-11-21T15:48:46;100271.44;;;8.85;62.07
12213;BME280;6169;44.158;22.788;2022-11-21T15:53:48;100280.03;;;8.82;61.90
12213;BME280;6169;44.158;22.788;2022-11-21T15:58:52;100282.59;;;8.76;62.71
12213;BME280;6169;44.158;22.788;2022-11-21T16:03:57;100274.19;;;8.96;61.62
12213;BME280;6169;44.158;22.788;2022-11-21T16:09:00;100289.16;;;8.99;62.05
12213;BME280;6169;44.158;22.788;2022-11-21T16:14:04;100289.94;;;8.88;61.54
12213;BME280;6169;44.158;22.788;2022-11-21T16:19:08;100288.16;;;8.82;62.20
12213;BME280;6169;44.158;22.788;2022-11-21T16:24:11;100286.47;;;8.81;61.91
12213;BME280;6169;44.158;22.788;2022-11-21T16:29:13;100291.53;;;8.77;61.43
12213;BME280;6169;44.158;22.788;2022-11-21T16:34:18;100293.16;;;8.78;61.91
12213;BME280;6169;44.158;22.788;2022-11-21T16:39:22;100294.66;;;8.92;60.85
12213;BME280;6169;44.158;22.788;2022-11-21T16:44:28;100304.84;;;8.78;61.72
12213;BME280;6169;44.158;22.788;2022-11-21T16:49:33;100304.75;;;9.15;60.72
12213;BME280;6169;44.158;22.788;2022-11-21T16:54:35;100295.56;;;8.56;62.19
12213;BME280;6169;44.158;22.788;2022-11-21T16:59:37;100320.41;;;8.46;62.94
12213;BME280;6169;44.158;22.788;2022-11-21T17:04:41;100331.38;;;8.70;61.90
12213;BME280;6169;44.158;22.788;2022-11-21T17:09:43;100320.44;;;8.95;61.42
12213;BME280;6169;44.158;22.788;2022-11-21T17:14:46;100335.50;;;8.72;62.01
12213;BME280;6169;44.158;22.788;2022-11-21T17:19:50;100344.16;;;8.81;62.14
12213;BME280;6169;44.158;22.788;2022-11-21T17:24:54;100354.28;;;8.49;63.15
12213;BME280;6169;44.158;22.788;2022-11-21T17:29:56;100346.31;;;8.72;61.92
12213;BME280;6169;44.158;22.788;2022-11-21T17:34:59;100353.41;;;8.73;62.31
12213;BME280;6169;44.158;22.788;2022-11-21T17:40:02;100344.13;;;8.99;60.54
12213;BME280;6169;44.158;22.788;2022-11-21T17:45:07;100343.63;;;9.21;59.91
12213;BME280;6169;44.158;22.788;2022-11-21T17:50:11;100355.03;;;9.23;59.60
12213;BME280;6169;44.158;22.788;2022-11-21T17:55:13;100350.00;;;8.78;61.24
12213;BME280;6169;44.158;22.788;2022-11-21T18:00:15;100353.66;;;8.84;60.21
12213;BME280;6169;44.158;22.788;2022-11-21T18:05:20;100348.44;;;8.52;61.52
12213;BME280;6169;44.158;22.788;2022-11-21T18:10:22;100349.94;;;8.85;61.03
12213;BME280;6169;44.158;22.788;2022-11-21T18:15:24;100347.41;;;8.53;61.88
12213;BME280;6169;44.158;22.788;2022-11-21T18:20:28;100350.75;;;8.67;61.83
12213;BME280;6169;44.158;22.788;2022-11-21T18:25:33;100349.78;;;8.79;60.28
12213;BME280;6169;44.158;22.788;2022-11-21T18:30:36;100359.63;;;8.74;60.36
12213;BME280;6169;44.158;22.788;2022-11-21T18:35:41;100300.59;;;8.34;59.71
12213;BME280;6169;44.158;22.788;2022-11-21T18:40:43;100366.19;;;8.48;61.04
12213;BME280;6169;44.158;22.788;2022-11-21T18:45:45;100377.06;;;8.16;62.51
12213;BME280;6169;44.158;22.788;2022-11-21T18:50:49;100379.22;;;8.32;61.48
12213;BME280;6169;44.158;22.788;2022-11-21T18:55:51;100378.44;;;8.50;61.01
12213;BME280;6169;44.158;22.788;2022-11-21T19:00:59;100385.56;;;8.63;60.02
12213;BME280;6169;44.158;22.788;2022-11-21T19:06:04;100385.44;;;8.33;60.84
12213;BME280;6169;44.158;22.788;2022-11-21T19:11:10;100376.94;;;8.11;61.14
12213;BME280;6169;44.158;22.788;2022-11-21T19:16:15;100393.50;;;8.40;60.97
12213;BME280;6169;44.158;22.788;2022-11-21T19:21:19;100400.59;;;8.77;60.08
12213;BME280;6169;44.158;22.788;2022-11-21T19:26:21;100411.56;;;8.64;60.67
12213;BME280;6169;44.158;22.788;2022-11-21T19:31:23;100414.59;;;8.31;62.24
12213;BME280;6169;44.158;22.788;2022-11-21T19:36:27;100425.22;;;8.69;60.92
12213;BME280;6169;44.158;22.788;2022-11-21T19:41:29;100423.00;;;8.85;58.93
12213;BME280;6169;44.158;22.788;2022-11-21T19:46:33;100429.09;;;8.62;60.50
12213;BME280;6169;44.158;22.788;2022-11-21T19:51:38;100426.50;;;8.48;59.56
12213;BME280;6169;44.158;22.788;2022-11-21T19:56:41;100408.03;;;8.20;61.09
12213;BME280;6169;44.158;22.788;2022-11-21T20:01:43;100410.28;;;8.48;59.78
12213;BME280;6169;44.158;22.788;2022-11-21T20:06:47;100415.59;;;8.37;60.43
12213;BME280;6169;44.158;22.788;2022-11-21T20:11:50;100425.16;;;8.57;59.49
12213;BME280;6169;44.158;22.788;2022-11-21T20:16:53;100431.97;;;7.85;61.65
12213;BME280;6169;44.158;22.788;2022-11-21T20:21:57;100441.03;;;8.04;61.89
12213;BME280;6169;44.158;22.788;2022-11-21T20:26:59;100451.94;;;7.84;63.20
12213;BME280;6169;44.158;22.788;2022-11-21T20:32:01;100459.28;;;7.32;64.63
12213;BME280;6169;44.158;22.788;2022-11-21T20:37:05;100469.25;;;6.26;69.29
12213;BME280;6169;44.158;22.788;2022-11-21T20:42:07;100484.00;;;6.70;68.34
12213;BME280;6169;44.158;22.788;2022-11-21T20:47:09;100478.78;;;6.82;67.57
12213;BME280;6169;44.158;22.788;2022-11-21T20:52:13;100477.06;;;6.94;66.83
12213;BME280;6169;44.158;22.788;2022-11-21T20:57:15;100479.56;;;6.96;66.77
12213;BME280;6169;44.158;22.788;2022-11-21T21:02:17;100482.28;;;6.96;66.95
12213;BME280;6169;44.158;22.788;2022-11-21T21:07:21;100486.47;;;7.37;65.39
12213;BME280;6169;44.158;22.788;2022-11-21T21:12:23;100484.28;;;8.04;62.11
12213;BME280;6169;44.158;22.788;2022-11-21T21:17:27;100484.06;;;7.67;63.46
12213;BME280;6169;44.158;22.788;2022-11-21T21:22:30;100485.00;;;7.79;63.10
12213;BME280;6169;44.158;22.788;2022-11-21T21:27:33;100486.81;;;7.60;63.00
12213;BME280;6169;44.158;22.788;2022-11-21T21:32:36;100484.78;;;7.87;62.02
12213;BME280;6169;44.158;22.788;2022-11-21T21:37:39;100470.13;;;8.08;61.28
12213;BME280;6169;44.158;22.788;2022-11-21T21:42:41;100477.25;;;7.06;65.83
12213;BME280;6169;44.158;22.788;2022-11-21T21:47:43;100481.38;;;7.09;65.39
12213;BME280;6169;44.158;22.788;2022-11-21T21:52:47;100468.94;;;7.08;65.98
12213;BME280;6169;44.158;22.788;2022-11-21T21:57:49;100474.50;;;7.19;65.45
12213;BME280;6169;44.158;22.788;2022-11-21T22:02:51;100472.38;;;7.73;63.21
12213;BME280;6169;44.158;22.788;2022-11-21T22:07:57;100473.81;;;7.37;64.50
12213;BME280;6169;44.158;22.788;2022-11-21T22:12:59;100482.84;;;7.18;65.06
12213;BME280;6169;44.158;22.788;2022-11-21T22:18:01;100482.34;;;7.34;64.78
12213;BME280;6169;44.158;22.788;2022-11-21T22:23:05;100481.59;;;7.59;63.95
12213;BME280;6169;44.158;22.788;2022-11-21T22:28:07;100488.78;;;7.33;64.50
12213;BME280;6169;44.158;22.788;2022-11-21T22:33:09;100496.59;;;7.48;64.45
12213;BME280;6169;44.158;22.788;2022-11-21T22:38:14;100486.28;;;7.32;65.09
12213;BME280;6169;44.158;22.788;2022-11-21T22:43:16;100492.09;;;7.35;65.19
12213;BME280;6169;44.158;22.788;2022-11-21T22:48:18;100502.44;;;7.45;64.50
12213;BME280;6169;44.158;22.788;2022-11-21T22:53:22;100495.16;;;7.45;64.83
12213;BME280;6169;44.158;22.788;2022-11-21T22:58:28;100492.53;;;7.32;65.14
12213;BME280;6169;44.158;22.788;2022-11-21T23:03:31;100487.59;;;7.16;65.72
12213;BME280;6169;44.158;22.788;2022-11-21T23:08:36;100488.66;;;7.08;66.40
12213;BME280;6169;44.158;22.788;2022-11-21T23:13:39;100498.06;;;7.51;64.93
12213;BME280;6169;44.158;22.788;2022-11-21T23:18:42;100494.72;;;7.55;64.44
12213;BME280;6169;44.158;22.788;2022-11-21T23:23:46;100498.28;;;7.49;64.93
12213;BME280;6169;44.158;22.788;2022-11-21T23:28:48;100491.94;;;7.17;65.35
12213;BME280;6169;44.158;22.788;2022-11-21T23:33:50;100476.31;;;7.39;65.15
12213;BME280;6169;44.158;22.788;2022-11-21T23:38:54;100478.22;;;7.25;65.68
12213;BME280;6169;44.158;22.788;2022-11-21T23:43:56;100477.09;;;6.81;67.06
12213;BME280;6169;44.158;22.788;2022-11-21T23:48:59;100479.44;;;6.58;68.28
12213;BME280;6169;44.158;22.788;2022-11-21T23:54:03;100481.25;;;6.77;68.10
12213;BME280;6169;44.158;22.788;2022-11-21T23:59:05;100490.00;;;6.79;67.91
